Time;durP1;ratioP1;P1;durP2;ratioP2;P2;SDS_P1;SDS_P2;PMS_P1;PMS_P2;Temp;Humidity;BMP_temperature;BMP_pressure;BME280_temperature;BME280_humidity;BME280_pressure;Samples;Min_cycle;Max_cycle;Signal;HPM_P1;HPM_P2
2022/04/01 00:00:11;;;;;;;20.45;12.27;;;5.20;99.90;;;;;;6168503;23;20024;-79
2022/04/01 05:02:16;;;;;;;11.63;8.25;;;4.30;99.90;;;;;;6166021;22;20021;-79
2022/04/01 05:05:04;;;;;;;11.07;8.07;;;4.30;99.90;;;;;;6170135;23;20035;-81
2022/04/01 05:07:54;;;;;;;11.25;8.10;;;4.30;99.90;;;;;;6170082;23;20009;-81
2022/04/01 05:11:14;;;;;;;10.25;7.50;;;4.30;99.90;;;;;;6117712;23;20013;-82
2022/04/01 05:14:00;;;;;;;11.18;7.93;;;4.20;99.90;;;;;;6190683;23;20075;-81
2022/04/01 05:16:28;;;;;;;10.57;7.03;;;4.20;99.90;;;;;;6145693;23;20017;-81
2022/04/01 05:19:08;;;;;;;9.60;6.68;;;4.20;99.90;;;;;;6170620;23;20001;-82
2022/04/01 05:22:02;;;;;;;9.52;6.90;;;4.20;99.90;;;;;;6195689;23;20005;-80
2022/04/01 05:24:37;;;;;;;10.10;6.88;;;4.20;99.90;;;;;;6195471;23;20009;-80
2022/04/01 05:27:05;;;;;;;9.68;7.03;;;4.30;99.90;;;;;;6170988;23;20004;-81
2022/04/01 05:30:14;;;;;;;9.23;6.40;;;4.30;99.90;;;;;;6195198;23;20290;-81
2022/04/01 05:32:58;;;;;;;9.88;6.55;;;4.30;99.90;;;;;;6194688;23;20016;-81
2022/04/01 05:35:33;;;;;;;9.00;6.72;;;4.30;99.90;;;;;;6170617;23;20039;-81
2022/04/01 05:38:00;;;;;;;9.75;6.68;;;4.30;99.90;;;;;;6196938;23;20012;-81
2022/04/01 05:40:28;;;;;;;10.07;6.43;;;4.20;99.90;;;;;;6196072;23;20079;-81
2022/04/01 05:42:56;;;;;;;8.13;5.95;;;4.20;99.90;;;;;;6170912;23;20005;-81
2022/04/01 05:45:43;;;;;;;8.50;6.13;;;4.20;99.90;;;;;;6192432;23;20017;-81
2022/04/01 05:48:25;;;;;;;8.70;6.47;;;4.20;99.90;;;;;;6169417;23;20037;-81
2022/04/01 05:51:05;;;;;;;8.35;6.00;;;4.30;99.90;;;;;;6143792;23;20009;-81
2022/04/01 05:53:55;;;;;;;9.38;6.68;;;4.30;99.90;;;;;;6156899;23;20060;-80
2022/04/01 05:56:22;;;;;;;9.57;6.50;;;4.20;99.90;;;;;;6139546;23;20005;-79
2022/04/01 05:58:48;;;;;;;8.02;5.72;;;4.20;99.90;;;;;;6187141;23;20025;-79
2022/04/01 06:01:22;;;;;;;8.68;5.88;;;4.30;99.90;;;;;;6162177;23;20021;-80
2022/04/01 06:04:09;;;;;;;7.05;5.30;;;4.20;99.90;;;;;;6103000;23;20032;-81
2022/04/01 06:06:43;;;;;;;8.13;5.78;;;4.20;99.90;;;;;;6103504;23;20025;-81
2022/04/01 06:09:30;;;;;;;8.25;6.20;;;4.20;99.90;;;;;;6103991;23;20037;-81
2022/04/01 06:12:28;;;;;;;8.13;6.25;;;4.20;99.90;;;;;;6113968;23;20093;-81
2022/04/01 06:15:45;;;;;;;7.65;5.32;;;4.20;99.90;;;;;;6103409;23;20090;-81
2022/04/01 06:18:58;;;;;;;7.93;5.00;;;4.10;99.90;;;;;;6104182;23;20363;-81
2022/04/01 06:22:06;;;;;;;7.38;5.40;;;4.20;99.90;;;;;;6103773;23;20440;-81
2022/04/01 06:24:58;;;;;;;7.05;5.38;;;4.10;99.90;;;;;;6138472;23;20012;-81
2022/04/01 06:27:44;;;;;;;8.57;5.53;;;4.10;99.90;;;;;;6163412;23;20179;-81
2022/04/01 06:33:29;;;;;;;7.18;5.03;;;4.10;99.90;;;;;;6139117;23;20322;-82
2022/04/01 06:36:13;;;;;;;7.07;5.00;;;4.10;99.90;;;;;;6164551;23;20032;-80
2022/04/01 06:39:03;;;;;;;6.53;4.68;;;4.10;99.90;;;;;;6139484;23;20013;-81
2022/04/01 06:41:46;;;;;;;6.60;4.60;;;4.10;99.90;;;;;;6138824;23;20020;-81
2022/04/01 06:44:32;;;;;;;7.32;4.43;;;4.20;99.90;;;;;;6144020;23;20203;-80
2022/04/01 06:47:17;;;;;;;6.72;4.90;;;4.20;99.90;;;;;;6161429;23;20037;-80
2022/04/01 06:49:43;;;;;;;6.57;4.38;;;4.20;99.90;;;;;;6138296;23;20005;-80
2022/04/01 06:52:42;;;;;;;7.05;4.90;;;4.20;99.90;;;;;;6131999;23;20014;-79
2022/04/01 06:55:40;;;;;;;10.02;6.47;;;4.30;99.90;;;;;;6128062;23;20036;-80
2022/04/01 06:58:29;;;;;;;13.45;9.07;;;4.30;99.90;;;;;;6138500;23;20068;-81
2022/04/01 07:01:01;;;;;;;14.90;9.85;;;4.30;99.90;;;;;;6138307;23;20055;-79
2022/04/01 07:03:27;;;;;;;11.18;7.22;;;4.20;99.90;;;;;;6185201;23;20021;-81
2022/04/01 07:05:52;;;;;;;8.63;5.60;;;4.20;99.90;;;;;;6194702;23;20056;-81
2022/04/01 07:08:19;;;;;;;7.05;4.38;;;4.20;99.90;;;;;;6195623;23;20013;-79
2022/04/01 07:10:45;;;;;;;8.38;4.50;;;4.20;99.90;;;;;;6217794;23;20016;-79
2022/04/01 07:13:11;;;;;;;5.90;3.78;;;4.20;99.90;;;;;;6195488;23;20163;-79
2022/04/01 07:15:37;;;;;;;5.30;3.35;;;4.30;99.90;;;;;;6193064;23;20005;-80
2022/04/01 07:18:03;;;;;;;5.63;3.85;;;4.30;99.90;;;;;;6196488;23;20133;-80
2022/04/01 07:20:30;;;;;;;5.22;3.75;;;4.40;99.90;;;;;;6194532;23;20001;-80
2022/04/01 07:22:56;;;;;;;10.27;6.43;;;4.40;99.90;;;;;;6196244;23;20001;-80
2022/04/01 07:25:23;;;;;;;9.35;6.30;;;4.40;99.90;;;;;;6196352;23;20005;-80
2022/04/01 07:27:54;;;;;;;8.55;5.88;;;4.30;99.90;;;;;;6169186;23;20008;-80
2022/04/01 07:30:20;;;;;;;13.43;9.27;;;4.20;99.90;;;;;;6143529;23;20009;-80
2022/04/01 07:32:50;;;;;;;16.15;10.07;;;4.20;99.90;;;;;;6193379;23;20060;-80
2022/04/01 07:35:17;;;;;;;15.35;10.52;;;4.20;99.90;;;;;;6168241;23;20156;-80
2022/04/01 07:37:45;;;;;;;15.18;10.35;;;4.20;99.90;;;;;;6195968;23;20008;-79
2022/04/01 07:40:11;;;;;;;16.20;9.85;;;4.10;99.90;;;;;;6195672;23;20007;-80
2022/04/01 07:42:38;;;;;;;15.13;9.73;;;4.00;99.90;;;;;;6172894;23;20056;-80
2022/04/01 07:45:07;;;;;;;16.70;10.20;;;4.00;99.90;;;;;;6201799;23;20009;-79
2022/04/01 07:47:34;;;;;;;16.70;10.23;;;4.00;99.90;;;;;;6175728;23;20021;-80
2022/04/01 07:50:03;;;;;;;14.68;9.35;;;4.00;99.90;;;;;;6154140;23;20048;-80
2022/04/01 07:52:30;;;;;;;13.85;9.45;;;4.00;99.90;;;;;;6179567;23;20014;-80
2022/04/01 07:54:57;;;;;;;16.40;9.88;;;4.00;99.90;;;;;;6142505;23;20350;-80
2022/04/01 07:57:23;;;;;;;16.10;10.27;;;4.00;99.90;;;;;;6164031;23;20001;-81
2022/04/01 07:59:49;;;;;;;15.60;10.18;;;4.00;99.90;;;;;;6162132;23;20098;-81
2022/04/01 08:02:16;;;;;;;15.38;10.32;;;4.00;99.90;;;;;;6162341;23;20025;-80
2022/04/01 08:04:42;;;;;;;16.40;10.32;;;4.00;99.90;;;;;;6138735;23;20302;-82
2022/04/01 08:07:08;;;;;;;16.20;10.85;;;4.20;99.90;;;;;;6113285;23;20002;-82
2022/04/01 08:09:34;;;;;;;15.63;10.18;;;4.30;99.90;;;;;;6138050;23;20009;-80
2022/04/01 08:12:01;;;;;;;14.50;9.77;;;4.30;99.90;;;;;;6162997;23;19998;-82
2022/04/01 08:14:27;;;;;;;16.08;10.23;;;4.30;99.90;;;;;;6163263;23;20155;-83
2022/04/01 08:16:53;;;;;;;14.00;10.45;;;4.30;99.90;;;;;;6136395;23;20014;-83
2022/04/01 08:19:20;;;;;;;14.38;9.95;;;4.40;99.90;;;;;;6185155;23;20061;-84
2022/04/01 08:21:46;;;;;;;14.98;10.00;;;4.50;99.90;;;;;;6193214;23;20012;-83
2022/04/01 08:24:13;;;;;;;15.82;11.23;;;4.40;99.90;;;;;;6168365;23;20011;-80
2022/04/01 08:26:39;;;;;;;14.98;10.05;;;4.40;99.90;;;;;;6144559;23;20005;-82
2022/04/01 08:29:05;;;;;;;15.18;10.40;;;4.20;99.90;;;;;;6170177;23;19989;-82
2022/04/01 08:31:33;;;;;;;16.15;11.07;;;4.10;99.90;;;;;;6143057;23;20028;-82
2022/04/01 08:33:59;;;;;;;14.20;10.10;;;4.10;99.90;;;;;;6169154;23;19993;-82
2022/04/01 08:36:26;;;;;;;14.93;10.10;;;4.10;99.90;;;;;;6146705;23;20009;-82
2022/04/01 08:38:52;;;;;;;16.05;10.88;;;4.00;99.90;;;;;;6166714;23;20001;-83
2022/04/01 08:41:20;;;;;;;15.30;10.30;;;4.00;99.90;;;;;;6193979;23;20005;-82
2022/04/01 08:43:48;;;;;;;16.65;10.80;;;4.00;99.90;;;;;;6171331;23;20024;-83
2022/04/01 08:46:15;;;;;;;16.45;10.80;;;4.00;99.90;;;;;;6167161;23;20009;-81
2022/04/01 08:48:41;;;;;;;15.55;10.57;;;4.00;99.90;;;;;;6191403;23;20091;-83
2022/04/01 08:51:07;;;;;;;13.15;9.20;;;4.00;99.90;;;;;;6166236;23;20012;-82
2022/04/01 08:53:38;;;;;;;13.75;9.70;;;4.00;99.90;;;;;;6216643;23;20001;-82
2022/04/01 08:56:06;;;;;;;13.48;8.88;;;4.10;99.90;;;;;;6140777;23;20038;-83
2022/04/01 08:58:33;;;;;;;12.73;9.10;;;4.10;99.90;;;;;;6137585;23;20017;-81
2022/04/01 09:01:00;;;;;;;12.50;8.38;;;4.10;99.90;;;;;;6140788;23;20036;-81
2022/04/01 09:03:28;;;;;;;9.88;6.68;;;4.20;99.90;;;;;;6138995;23;20020;-83
2022/04/01 09:05:56;;;;;;;7.80;5.30;;;4.20;99.90;;;;;;6163433;23;20318;-82
2022/04/01 09:08:46;;;;;;;8.38;5.05;;;4.30;99.90;;;;;;6114539;23;20005;-82
2022/04/01 09:11:18;;;;;;;6.32;4.18;;;4.30;99.90;;;;;;6137149;23;20005;-81
2022/04/01 09:14:03;;;;;;;6.85;4.38;;;4.40;99.90;;;;;;6138132;23;20001;-82
2022/04/01 09:16:36;;;;;;;8.55;5.03;;;4.40;99.90;;;;;;6162707;23;20020;-82
2022/04/01 09:19:08;;;;;;;6.93;5.05;;;4.50;99.90;;;;;;6111398;23;20093;-82
2022/04/01 09:21:42;;;;;;;7.85;5.65;;;4.50;99.90;;;;;;6115444;23;20005;-83
2022/04/01 09:24:11;;;;;;;7.28;5.35;;;4.50;99.90;;;;;;6080937;23;20028;-82
2022/04/01 09:26:39;;;;;;;9.30;6.63;;;4.40;99.90;;;;;;6124073;23;20100;-82
2022/04/01 09:29:10;;;;;;;10.60;7.00;;;4.40;99.90;;;;;;6140803;23;20189;-83
2022/04/01 09:31:41;;;;;;;10.10;6.90;;;4.40;99.90;;;;;;6139398;23;20207;-82
2022/04/01 09:34:13;;;;;;;9.80;7.32;;;4.40;99.90;;;;;;6116112;23;20010;-82
2022/04/01 09:36:41;;;;;;;10.38;7.22;;;4.30;99.90;;;;;;6143009;23;20001;-82
2022/04/01 09:39:14;;;;;;;11.60;8.05;;;4.30;99.90;;;;;;6119223;23;20001;-83
2022/04/01 09:41:58;;;;;;;12.15;8.00;;;4.20;99.90;;;;;;6142387;23;20008;-82
2022/04/01 09:44:27;;;;;;;9.90;6.97;;;4.20;99.90;;;;;;6142122;23;20072;-82
2022/04/01 09:47:07;;;;;;;8.48;5.95;;;4.30;99.90;;;;;;6141781;23;20014;-82
2022/04/01 09:49:39;;;;;;;8.45;5.88;;;4.40;99.90;;;;;;6117391;23;20057;-83
2022/04/01 09:52:10;;;;;;;6.88;4.55;;;4.50;99.90;;;;;;6168982;23;20260;-81
2022/04/01 09:54:51;;;;;;;6.53;4.40;;;4.60;99.90;;;;;;6140384;23;20009;-82
2022/04/01 09:57:19;;;;;;;5.65;4.07;;;4.50;99.90;;;;;;6165874;23;20008;-81
2022/04/01 09:59:47;;;;;;;6.40;4.43;;;4.50;99.90;;;;;;6139740;23;20016;-82
2022/04/01 10:02:13;;;;;;;6.65;4.40;;;4.40;99.90;;;;;;6139198;23;20356;-80
2022/04/01 10:04:39;;;;;;;6.82;4.50;;;4.40;99.90;;;;;;6139495;23;20191;-81
2022/04/01 10:07:07;;;;;;;6.10;4.35;;;4.40;99.90;;;;;;6165703;23;20028;-82
2022/04/01 10:09:34;;;;;;;6.05;4.22;;;4.50;99.90;;;;;;6165240;23;20303;-82
2022/04/01 10:12:06;;;;;;;6.22;4.40;;;4.50;99.90;;;;;;6165188;23;20275;-82
2022/04/01 10:15:00;;;;;;;6.07;4.05;;;4.50;99.90;;;;;;6138934;23;20001;-82
2022/04/01 10:17:28;;;;;;;5.55;3.88;;;4.70;99.90;;;;;;6138214;23;20064;-81
2022/04/01 10:19:59;;;;;;;5.68;3.70;;;4.60;99.90;;;;;;6139267;23;20012;-82
2022/04/01 10:22:25;;;;;;;4.93;3.50;;;4.70;99.90;;;;;;6188909;23;20143;-81
2022/04/01 10:25:36;;;;;;;5.40;3.40;;;4.70;99.90;;;;;;6138491;23;20009;-82
2022/04/01 10:28:04;;;;;;;4.75;3.28;;;4.60;99.90;;;;;;6129812;23;20036;-82
2022/04/01 10:30:32;;;;;;;4.32;3.10;;;4.50;99.90;;;;;;6113907;23;20035;-82
2022/04/01 10:32:59;;;;;;;4.95;3.35;;;4.50;99.90;;;;;;6114061;23;20218;-82
2022/04/01 10:35:38;;;;;;;4.53;2.95;;;4.50;99.90;;;;;;6140584;23;20199;-81
2022/04/01 10:38:06;;;;;;;5.30;3.30;;;4.50;99.90;;;;;;6113778;23;20005;-81
2022/04/01 10:40:39;;;;;;;5.75;3.00;;;4.50;99.90;;;;;;6138573;23;20041;-82
2022/04/01 10:43:29;;;;;;;4.20;2.83;;;4.60;99.90;;;;;;6138364;23;20005;-81
2022/04/01 10:46:10;;;;;;;4.13;2.65;;;4.70;99.90;;;;;;6139483;23;20005;-80
2022/04/01 10:51:36;;;;;;;3.95;2.60;;;4.60;99.90;;;;;;6138107;23;20006;-80
2022/04/01 10:54:12;;;;;;;3.22;2.63;;;4.60;99.90;;;;;;6164686;23;20002;-80
2022/04/01 10:56:39;;;;;;;5.47;2.97;;;4.50;99.90;;;;;;6139350;23;20010;-82
2022/04/01 10:59:25;;;;;;;4.25;3.00;;;4.50;99.90;;;;;;6138940;23;20025;-82
2022/04/01 11:01:53;;;;;;;4.10;3.00;;;4.50;99.90;;;;;;6138175;23;20065;-82
2022/04/01 11:04:21;;;;;;;4.32;3.15;;;4.40;99.90;;;;;;6139097;23;20025;-81
2022/04/01 11:06:50;;;;;;;4.05;3.10;;;4.50;99.90;;;;;;6139140;23;20002;-80
2022/04/01 11:09:38;;;;;;;4.00;3.08;;;4.60;99.90;;;;;;6164823;23;20031;-81
2022/04/01 11:12:19;;;;;;;4.20;3.10;;;4.80;99.90;;;;;;6137466;23;20061;-80
2022/04/01 11:14:54;;;;;;;5.22;2.92;;;5.10;99.90;;;;;;6139612;23;20048;-82
2022/04/01 11:17:26;;;;;;;4.00;3.03;;;5.00;99.90;;;;;;6138056;23;20013;-81
2022/04/01 11:20:25;;;;;;;3.55;2.90;;;4.80;99.90;;;;;;6139143;23;20006;-81
2022/04/01 11:22:54;;;;;;;4.63;3.28;;;4.70;99.90;;;;;;6165096;23;20032;-81
2022/04/01 11:25:27;;;;;;;;;;;4.60;99.90;;;;;;6138829;23;20267;-81
2022/04/01 11:28:24;;;;;;;3.67;2.63;;;4.50;99.90;;;;;;6114496;23;19918;-81
2022/04/01 11:30:49;;;;;;;4.93;3.13;;;4.50;99.90;;;;;;6097212;23;20012;-81
2022/04/01 11:33:20;;;;;;;4.05;3.08;;;4.40;99.90;;;;;;6171726;23;20001;-81
2022/04/01 11:35:51;;;;;;;4.47;2.92;;;4.40;99.90;;;;;;6177278;23;20013;-80
2022/04/01 11:38:19;;;;;;;4.00;3.08;;;4.60;99.90;;;;;;6155098;23;20015;-83
2022/04/01 11:40:47;;;;;;;4.53;2.80;;;4.60;99.90;;;;;;6156181;23;20024;-83
2022/04/01 11:43:17;;;;;;;4.82;3.17;;;4.60;99.90;;;;;;6147251;23;20083;-82
2022/04/01 11:45:47;;;;;;;4.13;3.05;;;4.70;99.90;;;;;;6165517;23;20010;-81
2022/04/01 11:48:41;;;;;;;4.57;3.10;;;4.90;99.90;;;;;;6139030;23;20005;-80
2022/04/01 11:51:13;;;;;;;4.07;3.00;;;4.90;99.90;;;;;;6130114;23;20013;-81
2022/04/01 11:53:52;;;;;;;4.22;2.95;;;4.90;99.90;;;;;;6164276;23;20025;-81
2022/04/01 11:56:28;;;;;;;4.30;3.22;;;5.00;99.90;;;;;;6139449;23;20020;-80
2022/04/01 11:59:07;;;;;;;4.43;2.95;;;4.90;99.90;;;;;;6158718;23;20005;-84
2022/04/01 12:01:57;;;;;;;4.70;3.38;;;4.80;99.90;;;;;;6114434;23;20084;-82
2022/04/01 12:04:29;;;;;;;4.53;3.30;;;4.50;99.90;;;;;;6114425;23;20013;-82
2022/04/01 12:09:44;;;;;;;4.25;3.38;;;4.50;99.90;;;;;;6164554;23;20001;-81
2022/04/01 12:12:11;;;;;;;;;;;4.50;99.90;;;;;;6163027;23;20000;-82
2022/04/01 12:14:38;;;;;;;4.45;3.38;;;4.70;99.90;;;;;;6138874;23;19948;-80
2022/04/01 12:17:10;;;;;;;6.57;3.90;;;4.90;99.90;;;;;;6136799;23;20061;-82
2022/04/01 12:19:48;;;;;;;4.93;3.92;;;5.00;99.90;;;;;;6113620;23;20306;-81
2022/04/01 12:22:14;;;;;;;;;;;4.80;99.90;;;;;;6163057;23;20287;-81
2022/04/01 12:24:40;;;;;;;5.20;4.25;;;4.80;99.90;;;;;;6165248;23;19900;-82
2022/04/01 12:27:09;;;;;;;5.65;4.05;;;4.80;99.90;;;;;;6137851;23;20052;-82
2022/04/01 12:29:35;;;;;;;5.25;4.55;;;4.90;99.90;;;;;;6165281;23;20001;-82
2022/04/01 12:32:05;;;;;;;6.25;5.10;;;5.00;99.90;;;;;;6164471;23;20032;-83
2022/04/01 12:34:31;;;;;;;5.80;4.60;;;4.90;99.90;;;;;;6138599;23;20002;-82
2022/04/01 12:37:03;;;;;;;6.35;4.80;;;4.80;99.90;;;;;;6114588;23;20279;-83
2022/04/01 12:39:32;;;;;;;6.50;5.05;;;4.90;99.90;;;;;;6139927;23;20310;-83
2022/04/01 12:42:06;;;;;;;6.72;5.05;;;5.00;99.90;;;;;;6114259;23;20080;-82
2022/04/01 12:44:35;;;;;;;5.93;4.60;;;5.10;99.90;;;;;;6141062;23;20056;-83
2022/04/01 12:47:03;;;;;;;5.80;4.60;;;5.10;99.90;;;;;;6137533;23;20010;-82
2022/04/01 12:49:34;;;;;;;6.43;4.97;;;4.90;99.90;;;;;;6113010;23;20049;-82
2022/04/01 12:52:03;;;;;;;7.32;5.57;;;4.90;99.90;;;;;;6162300;23;20354;-83
2022/04/01 12:54:40;;;;;;;6.60;5.05;;;4.80;99.90;;;;;;6139101;23;20303;-82
2022/04/01 12:57:11;;;;;;;6.90;5.13;;;4.60;99.90;;;;;;6139352;23;20085;-83
2022/04/01 12:59:42;;;;;;;7.20;5.60;;;4.40;99.90;;;;;;6164821;23;20317;-83
2022/04/01 13:02:20;;;;;;;8.30;6.00;;;4.20;99.90;;;;;;6138811;23;20028;-83
2022/04/01 13:04:51;;;;;;;8.30;6.23;;;4.00;99.90;;;;;;6143549;23;20005;-83
2022/04/01 13:07:28;;;;;;;9.73;6.70;;;3.90;99.90;;;;;;6140767;23;20424;-82
2022/04/01 13:09:55;;;;;;;10.48;7.13;;;3.70;99.90;;;;;;6142002;23;20005;-82
2022/04/01 13:12:35;;;;;;;10.07;7.78;;;3.50;99.90;;;;;;6164568;23;20066;-80
2022/04/01 13:15:28;;;;;;;10.13;7.13;;;3.40;99.90;;;;;;6167044;23;20056;-82
2022/04/01 13:17:57;;;;;;;8.77;6.95;;;3.30;99.90;;;;;;6131480;23;20033;-82
2022/04/01 13:20:36;;;;;;;10.13;7.55;;;3.20;99.90;;;;;;6112016;23;20002;-81
2022/04/01 13:23:06;;;;;;;11.05;7.97;;;3.20;99.90;;;;;;6138116;23;20056;-82
2022/04/01 13:25:33;;;;;;;10.70;8.25;;;3.40;99.90;;;;;;6112112;23;20030;-83
2022/04/01 13:28:00;;;;;;;10.18;7.50;;;3.50;99.90;;;;;;6137511;23;20048;-82
2022/04/01 13:30:26;;;;;;;10.45;7.72;;;3.70;99.90;;;;;;6141232;23;20029;-81
2022/04/01 13:32:53;;;;;;;9.43;7.57;;;3.90;99.90;;;;;;6165742;23;19997;-83
2022/04/01 13:35:19;;;;;;;9.82;7.47;;;3.90;99.90;;;;;;6164382;23;20016;-82
2022/04/01 13:37:45;;;;;;;9.43;7.47;;;4.00;99.90;;;;;;6166825;23;20011;-80
2022/04/01 13:40:12;;;;;;;10.15;7.88;;;4.00;99.90;;;;;;6164451;23;20283;-81
2022/04/01 13:42:38;;;;;;;10.90;7.75;;;4.10;99.90;;;;;;6140333;23;20188;-82
2022/04/01 13:45:04;;;;;;;10.55;8.52;;;4.10;99.90;;;;;;6138601;23;20198;-83
2022/04/01 13:47:33;;;;;;;11.57;8.13;;;4.20;99.90;;;;;;6135319;23;20017;-83
2022/04/01 13:50:00;;;;;;;10.27;8.50;;;4.10;99.90;;;;;;6136407;23;19990;-82
2022/04/01 13:52:26;;;;;;;11.00;8.70;;;4.10;99.90;;;;;;6133618;23;20013;-82
2022/04/01 13:54:52;;;;;;;10.63;8.63;;;4.10;99.90;;;;;;6086669;23;20184;-82
2022/04/01 13:57:18;;;;;;;9.80;8.07;;;4.10;99.90;;;;;;6109628;23;20010;-81
2022/04/01 13:59:44;;;;;;;10.98;8.32;;;4.20;99.90;;;;;;6135110;23;20053;-82
2022/04/01 14:02:12;;;;;;;9.50;7.70;;;4.10;99.90;;;;;;6134785;23;20041;-80
2022/04/01 14:04:38;;;;;;;10.65;8.50;;;4.00;99.90;;;;;;6139623;23;20066;-80
2022/04/01 14:07:09;;;;;;;10.82;8.50;;;4.00;99.90;;;;;;6164740;23;20006;-79
2022/04/01 14:09:44;;;;;;;11.70;8.93;;;4.10;99.90;;;;;;6139939;23;20041;-82
2022/04/01 14:12:11;;;;;;;12.75;9.93;;;4.10;99.90;;;;;;6114833;23;20002;-83
2022/04/01 14:14:37;;;;;;;10.85;8.63;;;4.20;99.90;;;;;;6141795;23;20052;-79
2022/04/01 14:17:05;;;;;;;11.55;9.25;;;4.20;99.90;;;;;;6138496;23;20060;-81
2022/04/01 14:19:31;;;;;;;11.77;9.15;;;4.10;99.90;;;;;;6140659;23;20052;-80
2022/04/01 14:21:57;;;;;;;12.57;9.88;;;4.10;99.90;;;;;;6165482;23;20017;-81
2022/04/01 14:24:23;;;;;;;12.98;9.77;;;4.30;99.90;;;;;;6164823;23;20005;-81
2022/04/01 14:26:49;;;;;;;11.23;8.77;;;4.60;99.90;;;;;;6164591;23;20017;-80
2022/04/01 14:32:00;;;;;;;10.70;8.88;;;4.90;99.90;;;;;;6165220;23;20257;-79
2022/04/01 14:34:37;;;;;;;10.88;8.85;;;4.90;99.90;;;;;;6165143;23;20008;-81
2022/04/01 14:37:05;;;;;;;11.57;8.77;;;4.70;99.90;;;;;;6139495;23;20005;-81
2022/04/01 14:39:32;;;;;;;13.05;10.10;;;4.40;99.90;;;;;;6164841;23;20017;-79
2022/04/01 14:42:07;;;;;;;11.70;9.55;;;4.20;99.90;;;;;;6138988;23;20164;-79
2022/04/01 14:44:37;;;;;;;13.15;9.65;;;4.00;99.90;;;;;;6138948;23;20145;-80
2022/04/01 14:47:03;;;;;;;11.93;9.90;;;4.00;99.90;;;;;;6137922;23;20017;-80
2022/04/01 14:49:29;;;;;;;11.40;9.50;;;4.00;99.90;;;;;;6138343;23;20001;-80
2022/04/01 14:51:56;;;;;;;12.70;9.68;;;4.00;99.90;;;;;;6163572;23;20032;-81
2022/04/01 14:54:22;;;;;;;13.25;9.82;;;3.90;99.90;;;;;;6164342;23;19989;-82
2022/04/01 14:56:48;;;;;;;12.82;10.30;;;3.80;99.90;;;;;;6163137;23;20012;-80
2022/04/01 14:59:14;;;;;;;13.00;10.63;;;3.70;99.90;;;;;;6163069;23;19989;-79
2022/04/01 15:01:43;;;;;;;12.77;9.55;;;3.70;99.90;;;;;;6137478;23;20101;-81
2022/04/01 15:04:18;;;;;;;13.60;10.45;;;3.60;99.90;;;;;;6114873;23;20025;-80
2022/04/01 15:06:49;;;;;;;12.82;10.63;;;3.60;99.90;;;;;;6139947;23;20014;-81
2022/04/01 15:09:19;;;;;;;14.23;11.02;;;3.60;99.90;;;;;;6163715;23;20126;-81
2022/04/01 15:11:45;;;;;;;13.05;10.20;;;3.60;99.90;;;;;;6138983;23;20067;-81
2022/04/01 15:14:14;;;;;;;17.38;12.40;;;3.60;99.90;;;;;;6165407;23;20001;-80
2022/04/01 15:16:41;;;;;;;15.32;11.60;;;3.60;99.90;;;;;;6164263;23;20018;-79
2022/04/01 15:19:07;;;;;;;14.70;11.60;;;3.40;99.90;;;;;;6138625;23;20005;-81
2022/04/01 15:21:36;;;;;;;15.23;12.15;;;3.40;99.90;;;;;;6138918;23;20295;-80
2022/04/01 15:24:05;;;;;;;17.92;12.30;;;3.50;99.90;;;;;;6139423;23;20256;-79
2022/04/01 15:26:34;;;;;;;14.70;11.07;;;3.60;99.90;;;;;;6115913;23;20353;-82
2022/04/01 15:29:00;;;;;;;17.30;12.10;;;3.60;99.90;;;;;;6166460;23;19989;-81
2022/04/01 15:31:26;;;;;;;17.25;12.25;;;3.60;99.90;;;;;;6197401;23;20029;-82
2022/04/01 15:33:54;;;;;;;16.13;11.57;;;3.60;99.90;;;;;;6155903;23;20009;-80
2022/04/01 15:36:22;;;;;;;15.77;11.93;;;3.50;99.90;;;;;;6172970;23;20032;-80
2022/04/01 15:38:54;;;;;;;15.50;11.23;;;3.60;99.90;;;;;;6114852;23;20298;-80
2022/04/01 15:41:25;;;;;;;15.95;11.18;;;3.60;99.90;;;;;;6114437;23;20173;-80
2022/04/01 15:43:57;;;;;;;;;;;3.60;99.90;;;;;;6139412;23;20006;-81
2022/04/01 15:46:33;;;;;;;13.07;10.32;;;3.70;99.90;;;;;;6106502;23;19934;-83
2022/04/01 15:49:20;;;;;;;13.00;9.90;;;3.80;99.90;;;;;;6108185;23;20319;-80
2022/04/01 15:51:55;;;;;;;13.63;10.32;;;3.80;99.90;;;;;;6137179;23;20006;-81
2022/04/01 15:54:23;;;;;;;14.38;10.43;;;3.80;99.90;;;;;;6108968;23;20072;-79
2022/04/01 15:56:52;;;;;;;14.02;10.40;;;3.70;99.90;;;;;;6135560;23;19998;-79
2022/04/01 15:59:18;;;;;;;12.75;9.80;;;3.50;99.90;;;;;;6108784;23;20040;-80
2022/04/01 16:01:44;;;;;;;13.55;10.27;;;3.40;99.90;;;;;;6133860;23;20208;-79
2022/04/01 16:04:22;;;;;;;15.45;11.07;;;3.30;99.90;;;;;;6079508;23;20036;-79
2022/04/01 16:06:50;;;;;;;15.00;10.68;;;3.20;99.90;;;;;;6080369;23;20018;-80
2022/04/01 16:09:20;;;;;;;14.40;10.60;;;3.20;99.90;;;;;;6105573;23;20019;-80
2022/04/01 16:11:47;;;;;;;13.68;10.02;;;3.00;99.90;;;;;;6116412;23;20022;-78
2022/04/01 16:14:15;;;;;;;15.25;10.68;;;2.80;99.90;;;;;;6090193;23;20024;-80
2022/04/01 16:16:44;;;;;;;15.95;11.73;;;2.80;99.90;;;;;;6108265;23;20251;-79
2022/04/01 16:19:10;;;;;;;19.48;13.18;;;2.80;99.90;;;;;;6114169;23;20200;-80
2022/04/01 16:21:36;;;;;;;15.75;10.98;;;2.80;99.90;;;;;;6140633;23;20054;-79
2022/04/01 16:24:03;;;;;;;14.60;11.07;;;2.70;99.90;;;;;;6114430;23;20006;-79
2022/04/01 16:26:29;;;;;;;16.80;11.68;;;2.70;99.90;;;;;;6118189;23;20040;-79
2022/04/01 16:28:55;;;;;;;18.42;11.80;;;2.60;99.90;;;;;;6143975;23;20046;-79
2022/04/01 16:31:21;;;;;;;16.23;11.52;;;2.60;99.90;;;;;;6144349;23;20065;-79
2022/04/01 16:33:47;;;;;;;17.33;12.13;;;2.60;99.90;;;;;;6118586;23;20013;-80
2022/04/01 16:36:15;;;;;;;16.50;11.05;;;2.60;99.90;;;;;;6113013;23;20017;-80
2022/04/01 16:38:43;;;;;;;17.70;12.40;;;2.70;99.90;;;;;;6065340;23;20010;-79
2022/04/01 16:41:09;;;;;;;;;;;2.80;99.90;;;;;;6115702;23;20005;-80
2022/04/01 16:43:36;;;;;;;17.75;11.30;;;2.80;99.90;;;;;;6091040;23;19901;-79
2022/04/01 16:46:02;;;;;;;18.00;12.38;;;2.70;99.90;;;;;;6065842;23;20035;-79
2022/04/01 16:48:27;;;;;;;17.65;12.38;;;2.70;99.90;;;;;;6115830;23;20098;-79
2022/04/01 16:50:54;;;;;;;18.85;12.48;;;2.80;99.90;;;;;;6068022;23;20007;-80
2022/04/01 16:53:20;;;;;;;16.30;11.43;;;2.80;99.90;;;;;;6064617;23;20381;-77
2022/04/01 16:55:47;;;;;;;17.52;12.80;;;2.80;99.90;;;;;;6089098;23;20002;-79
2022/04/01 16:58:13;;;;;;;17.27;12.35;;;2.70;99.90;;;;;;6065453;23;20006;-80
2022/04/01 17:00:40;;;;;;;16.75;11.70;;;2.70;99.90;;;;;;6074144;23;20024;-81
2022/04/01 17:03:07;;;;;;;16.85;12.07;;;2.60;99.90;;;;;;6096975;23;20014;-81
2022/04/01 17:12:31;;;;;;;16.95;11.52;;;2.50;99.90;;;;;;6142368;23;20002;-81
2022/04/01 17:13:49;;;;;;;16.10;11.32;;;2.30;99.90;;;;;;6122285;23;20010;-81
2022/04/01 17:16:16;;;;;;;16.33;11.65;;;2.20;99.90;;;;;;6096423;23;20065;-81
2022/04/01 17:18:42;;;;;;;17.92;12.70;;;2.20;99.90;;;;;;6121841;23;20033;-81
2022/04/01 17:21:11;;;;;;;16.52;11.85;;;2.20;99.90;;;;;;6117968;23;20009;-79
2022/04/01 17:23:41;;;;;;;17.45;12.75;;;2.20;99.90;;;;;;6116973;23;20015;-79
2022/04/01 17:26:17;;;;;;;16.60;12.60;;;2.20;99.90;;;;;;6092765;23;20029;-79
2022/04/01 17:28:44;;;;;;;16.83;12.07;;;2.30;99.90;;;;;;6122829;23;20118;-81
2022/04/01 17:31:15;;;;;;;17.13;12.23;;;2.20;99.90;;;;;;6121532;23;20020;-78
2022/04/01 17:33:46;;;;;;;17.52;12.50;;;2.20;99.90;;;;;;6096843;23;20006;-81
2022/04/01 17:36:16;;;;;;;16.80;12.48;;;2.10;99.90;;;;;;6098371;23;20008;-82
2022/04/01 17:38:44;;;;;;;18.20;13.18;;;2.00;99.90;;;;;;6071816;23;20069;-80
2022/04/01 17:41:11;;;;;;;17.17;12.77;;;2.00;99.90;;;;;;6122134;23;20002;-82
2022/04/01 17:43:40;;;;;;;18.63;12.88;;;1.90;99.90;;;;;;6125652;23;20045;-83
2022/04/01 17:46:06;;;;;;;21.55;14.35;;;1.90;99.90;;;;;;6123903;23;20016;-82
2022/04/01 17:48:35;;;;;;;20.52;13.07;;;2.00;99.90;;;;;;6102004;23;20026;-83
2022/04/01 17:51:03;;;;;;;18.33;13.60;;;2.00;99.90;;;;;;6125180;23;20199;-83
2022/04/01 17:53:48;;;;;;;17.25;13.07;;;2.00;99.90;;;;;;6150410;23;20013;-84
2022/04/01 17:56:17;;;;;;;15.57;11.98;;;2.00;99.90;;;;;;6126048;23;20002;-84
2022/04/01 17:58:58;;;;;;;19.23;13.20;;;2.00;99.90;;;;;;6100378;23;20014;-80
2022/04/01 18:01:24;;;;;;;17.95;12.88;;;1.90;99.90;;;;;;6108964;23;20009;-81
2022/04/01 18:03:53;;;;;;;16.05;12.27;;;1.80;99.90;;;;;;6153516;23;20021;-81
2022/04/01 18:06:23;;;;;;;17.35;12.52;;;1.80;99.90;;;;;;6077162;23;20014;-82
2022/04/01 18:08:53;;;;;;;15.48;12.57;;;1.70;99.90;;;;;;6124904;23;20009;-83
2022/04/01 18:11:19;;;;;;;18.42;12.13;;;1.60;99.90;;;;;;6100815;23;20017;-83
2022/04/01 18:13:48;;;;;;;17.17;12.85;;;1.60;99.90;;;;;;6150171;23;20006;-83
2022/04/01 18:16:14;;;;;;;19.00;12.77;;;1.50;99.90;;;;;;6123584;23;20343;-83
2022/04/01 18:18:46;;;;;;;18.13;13.52;;;1.50;99.90;;;;;;6099565;23;20017;-82
2022/04/01 18:21:13;;;;;;;17.48;13.50;;;1.40;99.90;;;;;;6100403;23;19998;-83
2022/04/01 18:23:44;;;;;;;17.70;13.48;;;1.40;99.90;;;;;;6099830;23;20235;-80
2022/04/01 18:26:34;;;;;;;19.38;13.93;;;1.40;99.90;;;;;;6124715;23;20021;-81
2022/04/01 18:29:31;;;;;;;21.52;15.52;;;1.40;99.90;;;;;;6122381;23;20002;-82